Time;durP1;ratioP1;P1;durP2;ratioP2;P2;SDS_P1;SDS_P2;PMS_P1;PMS_P2;Temp;Humidity;BMP_temperature;BMP_pressure;BME280_temperature;BME280_humidity;BME280_pressure;Samples;Min_cycle;Max_cycle;Signal;HPM_P1;HPM_P2
2022/02/15 00:01:31;;;;;;;2.55;1.20;;;5.60;99.90;;;;;;4996456;28;20521;-60
2022/02/15 00:03:57;;;;;;;2.67;0.90;;;5.60;99.90;;;;;;5000131;28;20137;-60
2022/02/15 00:06:24;;;;;;;2.40;1.10;;;5.50;99.90;;;;;;4985052;28;20082;-60
2022/02/15 00:08:51;;;;;;;3.05;1.10;;;5.50;99.90;;;;;;4993772;28;20049;-60
2022/02/15 00:11:18;;;;;;;3.17;0.85;;;5.50;99.90;;;;;;5003632;28;20144;-60
2022/02/15 00:13:46;;;;;;;2.72;0.88;;;5.50;99.90;;;;;;5001170;28;20263;-59
2022/02/15 00:16:12;;;;;;;2.22;0.80;;;5.40;99.90;;;;;;4994728;28;20473;-60
2022/02/15 00:18:39;;;;;;;2.55;0.95;;;5.40;99.90;;;;;;4995819;28;20081;-60
2022/02/15 00:21:06;;;;;;;1.83;0.75;;;5.40;99.90;;;;;;4990350;28;20518;-59
2022/02/15 00:23:32;;;;;;;2.47;0.80;;;5.30;99.90;;;;;;4983107;28;20500;-60
2022/02/15 00:25:59;;;;;;;2.45;0.90;;;5.30;99.90;;;;;;4996913;28;21400;-60
2022/02/15 00:28:26;;;;;;;2.15;0.80;;;5.30;99.90;;;;;;4984937;28;20137;-55
2022/02/15 00:30:53;;;;;;;1.33;0.70;;;5.20;99.90;;;;;;4981586;28;20050;-60
2022/02/15 00:33:20;;;;;;;3.00;0.70;;;5.20;99.90;;;;;;4984265;28;20077;-60
2022/02/15 00:35:47;;;;;;;3.63;0.80;;;5.10;99.90;;;;;;4995739;28;20096;-60
2022/02/15 00:38:14;;;;;;;2.97;0.73;;;5.10;99.90;;;;;;4999166;28;20230;-60
2022/02/15 00:40:40;;;;;;;1.85;0.75;;;5.10;99.90;;;;;;4986778;28;20132;-60
2022/02/15 00:43:07;;;;;;;3.55;1.17;;;5.10;99.90;;;;;;4992816;28;20050;-59
2022/02/15 00:45:35;;;;;;;2.40;1.15;;;5.00;99.90;;;;;;4988288;28;20461;-60
2022/02/15 00:48:02;;;;;;;3.80;0.90;;;5.00;99.90;;;;;;4999013;28;20052;-60
2022/02/15 00:50:29;;;;;;;3.15;0.73;;;5.00;99.90;;;;;;5002230;28;20158;-59
2022/02/15 00:52:56;;;;;;;3.55;1.33;;;5.00;99.90;;;;;;5002101;28;20192;-60
2022/02/15 00:55:22;;;;;;;2.38;1.00;;;4.90;99.90;;;;;;4993657;28;20134;-60
2022/02/15 00:57:49;;;;;;;3.53;1.05;;;4.90;99.90;;;;;;4984454;28;20157;-60
2022/02/15 01:00:16;;;;;;;3.47;0.88;;;4.90;99.90;;;;;;4993525;28;20125;-60
2022/02/15 01:02:46;;;;;;;1.88;1.00;;;4.90;99.90;;;;;;4985183;28;20137;-60
2022/02/15 01:05:13;;;;;;;2.45;0.88;;;4.80;99.90;;;;;;4999631;28;20057;-60
2022/02/15 01:07:39;;;;;;;1.58;0.90;;;4.80;99.90;;;;;;5004585;28;20092;-59
2022/02/15 01:10:07;;;;;;;1.80;0.75;;;4.80;99.90;;;;;;4994699;28;20088;-59
2022/02/15 01:12:34;;;;;;;1.67;0.60;;;4.70;99.90;;;;;;5004807;28;20088;-60
2022/02/15 01:15:00;;;;;;;1.00;0.60;;;4.70;99.90;;;;;;4998865;28;20369;-59
2022/02/15 01:17:27;;;;;;;8.23;0.98;;;4.70;99.90;;;;;;4995879;28;20431;-59
2022/02/15 01:19:54;;;;;;;2.47;0.77;;;4.60;99.90;;;;;;5003919;28;20141;-59
2022/02/15 01:22:20;;;;;;;3.47;0.70;;;4.60;99.90;;;;;;4983395;28;20085;-60
2022/02/15 01:24:47;;;;;;;2.92;0.80;;;4.60;99.90;;;;;;4994010;28;20274;-60
2022/02/15 01:27:14;;;;;;;1.77;1.00;;;4.60;99.90;;;;;;5003529;28;20144;-60
2022/02/15 01:29:41;;;;;;;2.10;0.80;;;4.50;99.90;;;;;;5000630;28;20328;-60
2022/02/15 01:32:07;;;;;;;2.15;0.93;;;4.50;99.90;;;;;;5000009;28;20153;-59
2022/02/15 01:34:34;;;;;;;1.05;0.70;;;4.50;99.90;;;;;;4996036;28;20056;-60
2022/02/15 01:37:01;;;;;;;3.53;0.90;;;4.50;99.90;;;;;;5005125;28;20564;-59
2022/02/15 01:39:28;;;;;;;1.88;0.95;;;4.40;99.90;;;;;;5003768;28;20081;-59
2022/02/15 01:41:55;;;;;;;1.92;0.70;;;4.40;99.90;;;;;;4991875;28;20133;-60
2022/02/15 01:44:22;;;;;;;1.67;0.85;;;4.40;99.90;;;;;;5002230;28;20149;-57
2022/02/15 01:46:49;;;;;;;3.13;0.88;;;4.40;99.90;;;;;;5004651;28;20505;-60
2022/02/15 01:49:16;;;;;;;3.40;1.10;;;4.40;99.90;;;;;;5001530;28;20128;-60
2022/02/15 01:51:42;;;;;;;1.98;0.80;;;4.30;99.90;;;;;;5004875;28;20085;-60
2022/02/15 01:54:09;;;;;;;3.65;1.05;;;4.40;99.90;;;;;;5004598;28;20413;-59
2022/02/15 01:56:36;;;;;;;2.55;0.82;;;4.30;99.90;;;;;;4996497;28;20145;-59
2022/02/15 01:59:03;;;;;;;2.78;0.93;;;4.30;99.90;;;;;;4986044;28;20160;-60
2022/02/15 02:01:29;;;;;;;2.38;0.82;;;4.30;99.90;;;;;;5006913;28;20081;-59
2022/02/15 02:03:56;;;;;;;1.40;0.90;;;4.30;99.90;;;;;;4992493;28;20093;-59
2022/02/15 02:06:24;;;;;;;5.15;1.00;;;4.30;99.90;;;;;;5006951;28;20132;-60
2022/02/15 02:08:51;;;;;;;2.00;0.73;;;4.30;99.90;;;;;;5007419;28;20077;-59
2022/02/15 02:11:17;;;;;;;2.95;0.95;;;4.30;99.90;;;;;;4993172;28;20242;-59
2022/02/15 02:13:44;;;;;;;2.33;0.95;;;4.30;99.90;;;;;;4987846;28;20178;-60
2022/02/15 02:16:12;;;;;;;2.33;0.90;;;4.30;99.90;;;;;;5004590;28;20082;-59
2022/02/15 02:18:38;;;;;;;4.03;0.93;;;4.30;99.90;;;;;;5004646;28;20078;-59
2022/02/15 02:21:05;;;;;;;3.08;0.88;;;4.30;99.90;;;;;;4992491;28;20122;-60
2022/02/15 02:23:32;;;;;;;4.65;1.00;;;4.30;99.90;;;;;;4988373;28;20529;-60
2022/02/15 02:26:01;;;;;;;1.98;1.10;;;4.30;99.90;;;;;;4990505;28;20387;-59
2022/02/15 02:28:28;;;;;;;2.00;1.00;;;4.30;99.90;;;;;;4992515;28;20058;-59
2022/02/15 02:30:55;;;;;;;2.58;0.90;;;4.30;99.90;;;;;;4985484;28;20121;-59
2022/02/15 02:33:22;;;;;;;4.53;1.38;;;4.30;99.90;;;;;;5006136;28;20454;-60
2022/02/15 02:35:58;;;;;;;1.73;0.80;;;4.30;99.90;;;;;;5006792;28;20045;-59
2022/02/15 02:38:24;;;;;;;3.13;0.93;;;4.30;99.90;;;;;;5007309;28;20471;-59
2022/02/15 02:40:51;;;;;;;2.38;0.90;;;4.30;99.90;;;;;;5002552;28;20133;-60
2022/02/15 02:43:18;;;;;;;2.88;0.82;;;4.30;99.90;;;;;;5000614;28;20133;-60
2022/02/15 02:45:45;;;;;;;1.55;0.70;;;4.30;99.90;;;;;;5007034;28;20144;-59
2022/02/15 02:48:11;;;;;;;3.28;1.27;;;4.30;99.90;;;;;;5008146;28;20085;-56
2022/02/15 02:50:38;;;;;;;2.60;0.90;;;4.30;99.90;;;;;;4998210;28;20054;-59
2022/02/15 02:53:10;;;;;;;2.95;1.00;;;4.20;99.90;;;;;;5008245;28;20088;-59
2022/02/15 02:55:37;;;;;;;2.92;1.20;;;4.20;99.90;;;;;;5000227;28;20042;-59
2022/02/15 02:58:04;;;;;;;2.13;0.88;;;4.20;99.90;;;;;;4988904;28;20141;-59
2022/02/15 03:00:31;;;;;;;1.98;0.90;;;4.20;99.90;;;;;;4996878;28;20129;-59
2022/02/15 03:03:00;;;;;;;1.95;0.80;;;4.20;99.90;;;;;;4997474;28;20445;-60
2022/02/15 03:05:26;;;;;;;2.80;0.80;;;4.10;99.90;;;;;;5006918;28;20402;-59
2022/02/15 03:07:53;;;;;;;2.55;0.80;;;4.10;99.90;;;;;;5007342;28;20212;-60
2022/02/15 03:10:20;;;;;;;1.98;0.60;;;4.10;99.90;;;;;;4999104;28;20060;-59
2022/02/15 03:12:47;;;;;;;1.50;0.75;;;4.10;99.90;;;;;;4993064;28;20413;-60
2022/02/15 03:15:13;;;;;;;0.95;0.50;;;4.00;99.90;;;;;;4992958;28;20058;-59
2022/02/15 03:17:40;;;;;;;1.38;0.77;;;4.00;99.90;;;;;;4992793;28;20252;-60
2022/02/15 03:20:24;;;;;;;2.92;1.00;;;4.00;99.90;;;;;;4987899;28;20081;-59
2022/02/15 03:22:51;;;;;;;2.58;1.10;;;4.00;99.90;;;;;;4993438;28;20188;-59
2022/02/15 03:25:18;;;;;;;3.25;0.70;;;4.00;99.90;;;;;;5004606;28;20096;-57
2022/02/15 03:27:44;;;;;;;2.30;0.60;;;4.00;99.90;;;;;;5007571;28;20084;-58
2022/02/15 03:30:11;;;;;;;1.92;0.70;;;4.00;99.90;;;;;;4998850;28;20077;-59
2022/02/15 03:32:39;;;;;;;3.75;0.90;;;4.00;99.90;;;;;;4991919;28;20093;-59
2022/02/15 03:35:06;;;;;;;1.48;0.90;;;4.00;99.90;;;;;;5006781;28;20129;-59
2022/02/15 03:37:33;;;;;;;2.60;1.10;;;3.90;99.90;;;;;;5005948;28;20630;-59
2022/02/15 03:40:00;;;;;;;2.60;0.88;;;3.90;99.90;;;;;;5001134;28;20514;-60
2022/02/15 03:45:12;;;;;;;2.80;0.95;;;3.90;99.90;;;;;;4999829;28;20146;-59
2022/02/15 03:47:40;;;;;;;3.78;0.85;;;3.90;99.90;;;;;;4988196;28;20046;-59
2022/02/15 03:50:08;;;;;;;1.95;0.60;;;3.90;99.90;;;;;;4987569;28;20046;-59
2022/02/15 03:52:34;;;;;;;2.85;1.48;;;3.90;99.90;;;;;;4990783;28;20137;-59
2022/02/15 03:55:01;;;;;;;2.03;0.63;;;3.90;99.90;;;;;;5006771;28;20101;-59
2022/02/15 03:57:29;;;;;;;3.47;0.80;;;3.90;99.90;;;;;;5005582;28;20061;-60
2022/02/15 03:59:56;;;;;;;2.97;1.00;;;3.90;99.90;;;;;;4996985;28;20074;-58
2022/02/15 04:02:23;;;;;;;1.58;1.05;;;3.90;99.90;;;;;;5006932;28;20520;-60
2022/02/15 04:04:50;;;;;;;3.25;1.10;;;3.90;99.90;;;;;;5006098;28;20125;-59
2022/02/15 04:07:16;;;;;;;4.22;1.02;;;3.90;99.90;;;;;;4997523;28;20730;-60
2022/02/15 04:09:43;;;;;;;2.08;1.00;;;3.90;99.90;;;;;;5006889;28;20129;-58
2022/02/15 04:12:10;;;;;;;1.33;0.93;;;4.00;99.90;;;;;;4998126;28;20500;-59
2022/02/15 04:14:36;;;;;;;1.73;0.70;;;3.90;99.90;;;;;;5004695;28;21107;-59
2022/02/15 04:17:04;;;;;;;2.35;1.10;;;4.00;99.90;;;;;;5006857;28;20050;-58
2022/02/15 04:19:31;;;;;;;2.33;0.90;;;3.90;99.90;;;;;;5004834;28;20141;-58
2022/02/15 04:21:58;;;;;;;3.65;1.20;;;4.00;99.90;;;;;;4987854;28;20249;-59
2022/02/15 04:24:24;;;;;;;2.45;0.90;;;4.00;99.90;;;;;;5001343;28;20182;-59
2022/02/15 04:26:51;;;;;;;3.25;1.10;;;4.00;99.90;;;;;;4988377;28;20499;-60
2022/02/15 04:29:18;;;;;;;2.08;0.88;;;4.00;99.90;;;;;;5000174;28;20799;-59
2022/02/15 04:31:45;;;;;;;3.45;0.90;;;4.00;99.90;;;;;;5000579;28;20133;-58
2022/02/15 04:34:12;;;;;;;2.30;0.80;;;4.00;99.90;;;;;;5002690;28;20058;-59
2022/02/15 04:36:38;;;;;;;1.65;0.80;;;4.00;99.90;;;;;;5005534;28;20054;-59
2022/02/15 04:39:05;;;;;;;1.45;0.80;;;3.90;99.90;;;;;;5004599;28;20126;-59
2022/02/15 04:41:32;;;;;;;1.60;0.75;;;3.90;99.90;;;;;;4997454;28;20497;-60
2022/02/15 04:43:59;;;;;;;2.10;0.80;;;3.90;99.90;;;;;;5002073;28;20627;-60
2022/02/15 04:46:26;;;;;;;2.45;0.63;;;3.80;99.90;;;;;;4992175;28;20050;-59
2022/02/15 04:48:53;;;;;;;1.13;0.50;;;3.90;99.90;;;;;;4985182;28;20050;-59
2022/02/15 04:51:19;;;;;;;1.55;0.60;;;3.80;99.90;;;;;;4993848;28;20107;-59
2022/02/15 04:53:46;;;;;;;0.95;0.63;;;3.80;99.90;;;;;;5001933;28;20058;-59
2022/02/15 04:56:13;;;;;;;0.70;0.50;;;3.80;99.90;;;;;;5001804;28;20058;-60
2022/02/15 04:58:39;;;;;;;0.77;0.50;;;3.70;99.90;;;;;;4983736;28;20073;-59
2022/02/15 05:01:06;;;;;;;1.38;0.50;;;3.60;99.90;;;;;;4988205;28;20050;-60
2022/02/15 05:03:34;;;;;;;1.67;0.50;;;3.60;99.90;;;;;;4996123;28;20543;-59
2022/02/15 05:06:00;;;;;;;2.92;1.05;;;3.50;99.90;;;;;;5004392;28;20038;-59
2022/02/15 05:08:27;;;;;;;1.58;0.70;;;3.50;99.90;;;;;;4993927;28;20046;-59
2022/02/15 05:10:54;;;;;;;0.73;0.40;;;3.50;99.90;;;;;;4987818;28;20038;-59
2022/02/15 05:13:21;;;;;;;1.27;0.55;;;3.50;99.90;;;;;;4991495;28;20061;-60
2022/02/15 05:15:48;;;;;;;1.60;0.50;;;3.50;99.90;;;;;;5001693;28;20106;-60
2022/02/15 05:18:15;;;;;;;1.95;0.60;;;3.60;99.90;;;;;;4997469;28;20461;-59
2022/02/15 05:20:42;;;;;;;1.20;0.40;;;3.70;99.90;;;;;;4995126;28;20634;-59
2022/02/15 05:23:09;;;;;;;1.23;0.60;;;3.70;99.90;;;;;;4994532;28;20157;-59
2022/02/15 05:25:36;;;;;;;1.02;0.40;;;3.80;99.90;;;;;;5001959;28;20054;-59
2022/02/15 05:28:03;;;;;;;1.50;0.63;;;3.90;99.90;;;;;;4998566;28;20058;-58
2022/02/15 05:30:30;;;;;;;1.08;0.57;;;4.00;99.90;;;;;;4985903;28;20113;-59
2022/02/15 05:32:57;;;;;;;1.20;0.68;;;4.00;99.90;;;;;;4990310;28;20061;-59
2022/02/15 05:35:24;;;;;;;2.08;0.70;;;4.10;99.90;;;;;;5006485;28;20050;-59
2022/02/15 05:37:51;;;;;;;1.63;0.73;;;4.20;99.90;;;;;;5006293;28;20050;-59
2022/02/15 05:40:17;;;;;;;2.17;0.60;;;4.20;99.90;;;;;;5009469;28;20054;-59
2022/02/15 05:42:44;;;;;;;3.22;0.90;;;4.30;99.90;;;;;;5008025;28;20097;-58
2022/02/15 05:45:11;;;;;;;3.05;0.95;;;4.40;99.90;;;;;;5006195;28;20074;-59
2022/02/15 05:47:39;;;;;;;2.15;0.70;;;4.40;99.90;;;;;;5004870;28;20162;-59
2022/02/15 05:52:51;;;;;;;2.80;0.90;;;4.60;99.90;;;;;;4998452;28;20153;-59
2022/02/15 05:55:18;;;;;;;2.00;0.65;;;4.70;99.90;;;;;;5006047;28;20088;-60
2022/02/15 05:57:45;;;;;;;3.28;1.15;;;4.70;99.90;;;;;;4997433;28;20120;-59
2022/02/15 06:00:14;;;;;;;4.15;1.13;;;4.80;99.90;;;;;;5001052;28;20140;-60
2022/02/15 06:02:42;;;;;;;4.53;1.33;;;4.90;99.90;;;;;;4989431;28;20445;-60
2022/02/15 06:05:09;;;;;;;3.55;1.20;;;4.90;99.90;;;;;;5002779;28;20187;-58
2022/02/15 06:07:35;;;;;;;3.15;1.77;;;5.00;99.90;;;;;;5001575;28;20169;-58
2022/02/15 06:10:03;;;;;;;1.95;0.75;;;5.00;99.90;;;;;;5004802;28;20133;-58
2022/02/15 06:12:29;;;;;;;2.72;0.93;;;5.00;99.90;;;;;;5001968;28;20103;-59
2022/02/15 06:14:56;;;;;;;2.67;0.80;;;5.00;99.90;;;;;;4995981;28;20634;-57
2022/02/15 06:17:23;;;;;;;3.40;1.00;;;4.90;99.90;;;;;;4998092;28;20607;-55
2022/02/15 06:19:50;;;;;;;2.20;0.90;;;4.90;99.90;;;;;;4997763;28;20129;-58
2022/02/15 06:22:16;;;;;;;2.20;1.13;;;4.90;99.90;;;;;;4995291;28;20640;-58
2022/02/15 06:24:43;;;;;;;1.98;0.70;;;4.90;99.90;;;;;;5000301;28;20125;-58
2022/02/15 06:27:10;;;;;;;2.90;0.80;;;4.90;99.90;;;;;;4999607;28;20046;-58
2022/02/15 06:29:36;;;;;;;2.60;1.05;;;4.90;99.90;;;;;;4997103;28;20090;-59
2022/02/15 06:32:04;;;;;;;3.13;0.93;;;5.00;99.90;;;;;;5010543;28;20477;-59
2022/02/15 06:34:31;;;;;;;3.10;0.90;;;5.00;99.90;;;;;;5011087;28;20037;-58
2022/02/15 06:36:58;;;;;;;1.77;0.90;;;5.00;99.90;;;;;;5015393;28;20081;-59
2022/02/15 06:39:24;;;;;;;1.60;0.68;;;5.10;99.90;;;;;;5014022;28;20120;-59
2022/02/15 06:41:51;;;;;;;2.15;0.80;;;5.10;99.90;;;;;;5013462;28;20054;-59
2022/02/15 06:44:18;;;;;;;4.45;1.40;;;5.20;99.90;;;;;;5010366;28;20054;-58
2022/02/15 06:46:45;;;;;;;3.28;0.95;;;5.20;99.90;;;;;;5003808;28;20405;-59
2022/02/15 06:49:13;;;;;;;2.72;0.93;;;5.30;99.90;;;;;;4992523;28;20054;-59
2022/02/15 06:51:40;;;;;;;3.15;1.00;;;5.40;99.90;;;;;;4993823;28;20070;-59
2022/02/15 06:54:07;;;;;;;3.42;1.38;;;5.40;99.90;;;;;;4996185;28;20081;-59
2022/02/15 06:56:34;;;;;;;5.78;1.33;;;5.40;99.90;;;;;;4993070;28;20240;-59
2022/02/15 06:59:01;;;;;;;5.10;1.02;;;5.50;99.90;;;;;;4997516;28;20152;-58
2022/02/15 07:01:28;;;;;;;8.07;1.50;;;5.40;99.90;;;;;;4985021;28;20120;-59
2022/02/15 07:03:55;;;;;;;5.15;0.98;;;5.50;99.90;;;;;;5000885;28;20817;-58
2022/02/15 07:06:22;;;;;;;8.80;1.50;;;5.50;99.90;;;;;;5001020;28;20045;-59
2022/02/15 07:08:48;;;;;;;3.40;1.38;;;5.50;99.90;;;;;;4996476;28;20137;-58
2022/02/15 07:11:16;;;;;;;5.38;1.10;;;5.60;99.90;;;;;;5004250;28;20166;-59
2022/02/15 07:13:43;;;;;;;3.40;1.08;;;5.60;99.90;;;;;;4992468;28;20129;-59
2022/02/15 07:16:10;;;;;;;4.50;1.30;;;5.60;99.90;;;;;;4997317;28;20089;-59
2022/02/15 07:18:36;;;;;;;3.88;1.30;;;5.60;99.90;;;;;;4992851;28;20188;-59
2022/02/15 07:21:03;;;;;;;4.45;1.48;;;5.70;99.90;;;;;;5000420;28;20152;-59
2022/02/15 07:23:30;;;;;;;3.42;1.67;;;5.70;99.90;;;;;;5011438;28;20060;-58
2022/02/15 07:25:56;;;;;;;3.75;1.10;;;5.70;99.90;;;;;;4986432;28;20207;-59
2022/02/15 07:28:25;;;;;;;2.67;1.08;;;5.80;99.90;;;;;;4985943;28;20054;-56
2022/02/15 07:30:51;;;;;;;2.38;0.90;;;5.80;99.90;;;;;;5013613;28;20089;-59
2022/02/15 07:33:18;;;;;;;4.30;1.15;;;5.80;99.90;;;;;;5013371;28;20144;-58
2022/02/15 07:35:45;;;;;;;3.10;0.88;;;5.90;99.90;;;;;;4982285;28;20222;-58
2022/02/15 07:38:11;;;;;;;4.93;0.90;;;5.90;99.90;;;;;;4980975;28;20685;-59
2022/02/15 07:40:38;;;;;;;5.03;1.42;;;6.00;99.90;;;;;;4997407;28;20149;-58
2022/02/15 07:43:05;;;;;;;3.78;1.42;;;6.10;99.90;;;;;;4997800;28;20132;-58
2022/02/15 07:45:32;;;;;;;6.30;1.55;;;6.20;99.90;;;;;;4982622;28;20136;-58
2022/02/15 07:47:58;;;;;;;5.50;1.38;;;6.20;99.90;;;;;;4998037;28;20104;-59
2022/02/15 07:50:25;;;;;;;2.50;1.20;;;6.30;99.90;;;;;;4996529;28;20157;-59
2022/02/15 07:52:54;;;;;;;3.03;1.10;;;6.30;99.90;;;;;;5003017;28;20081;-58
2022/02/15 07:55:21;;;;;;;3.75;1.42;;;6.40;99.90;;;;;;5013151;28;20396;-59
2022/02/15 07:57:47;;;;;;;2.65;1.00;;;6.40;99.90;;;;;;5007927;28;20470;-58
2022/02/15 08:00:18;;;;;;;5.93;1.42;;;6.50;99.90;;;;;;4996182;28;20490;-58
2022/02/15 08:02:46;;;;;;;5.93;1.35;;;6.60;99.90;;;;;;4996099;28;20049;-59
2022/02/15 08:05:13;;;;;;;6.47;1.55;;;6.60;99.90;;;;;;4996768;28;20474;-59
2022/02/15 08:07:48;;;;;;;6.97;1.75;;;6.70;99.90;;;;;;4998866;28;20060;-59
2022/02/15 08:10:18;;;;;;;3.57;1.33;;;6.80;99.90;;;;;;4994406;28;20077;-58
2022/02/15 08:12:55;;;;;;;4.90;1.25;;;6.90;99.90;;;;;;4989939;28;20132;-58
2022/02/15 08:15:30;;;;;;;5.70;1.30;;;6.90;99.90;;;;;;4998457;28;20049;-58
2022/02/15 08:17:58;;;;;;;4.28;1.55;;;7.00;99.90;;;;;;4997554;28;20456;-58
2022/02/15 08:20:28;;;;;;;4.95;1.50;;;7.10;99.90;;;;;;4998464;28;20050;-58
2022/02/15 08:22:55;;;;;;;5.90;1.50;;;7.10;99.90;;;;;;4994050;28;20057;-58
2022/02/15 08:25:22;;;;;;;11.35;2.85;;;7.20;99.90;;;;;;4984516;28;20096;-59
2022/02/15 08:27:49;;;;;;;6.78;2.38;;;7.20;99.90;;;;;;4993183;28;20156;-59
2022/02/15 08:30:16;;;;;;;3.75;1.15;;;7.30;99.90;;;;;;5006892;28;20132;-59
2022/02/15 08:32:43;;;;;;;6.28;1.70;;;7.30;99.90;;;;;;4991896;28;20133;-58
2022/02/15 08:35:10;;;;;;;5.72;1.80;;;7.30;99.90;;;;;;5012317;28;20137;-58
2022/02/15 08:37:37;;;;;;;5.82;1.95;;;7.30;99.90;;;;;;4987212;28;20051;-57
2022/02/15 08:40:05;;;;;;;5.82;1.70;;;7.40;99.90;;;;;;4990418;28;20134;-59
2022/02/15 08:42:38;;;;;;;5.93;1.50;;;7.40;99.90;;;;;;4992984;28;20141;-59
2022/02/15 08:45:07;;;;;;;9.00;1.50;;;7.50;99.90;;;;;;4985879;28;20054;-58
2022/02/15 08:47:34;;;;;;;3.05;1.08;;;7.60;99.90;;;;;;4987996;28;20054;-59
2022/02/15 08:50:01;;;;;;;9.30;1.83;;;7.70;99.90;;;;;;4988345;28;20498;-59
2022/02/15 08:52:28;;;;;;;4.75;1.35;;;7.80;99.90;;;;;;4995410;28;20085;-59
2022/02/15 08:54:55;;;;;;;5.00;1.50;;;7.90;99.90;;;;;;5011793;28;20084;-59
2022/02/15 08:57:22;;;;;;;7.07;2.20;;;8.00;99.90;;;;;;5005587;28;20546;-59
2022/02/15 08:59:53;;;;;;;5.43;1.70;;;8.10;99.90;;;;;;4989762;28;20112;-58
2022/02/15 09:02:23;;;;;;;7.32;2.22;;;8.10;99.90;;;;;;4993574;28;20056;-58
2022/02/15 09:04:50;;;;;;;6.88;1.48;;;8.20;99.90;;;;;;4979371;28;20648;-58
2022/02/15 09:07:17;;;;;;;6.60;1.27;;;8.30;99.90;;;;;;4987009;28;20140;-59
2022/02/15 09:09:45;;;;;;;8.35;2.22;;;8.40;99.90;;;;;;4995360;28;20096;-58
2022/02/15 09:12:12;;;;;;;8.80;1.50;;;8.50;99.90;;;;;;4990108;28;20511;-58
2022/02/15 09:14:39;;;;;;;3.92;1.52;;;8.50;99.90;;;;;;4997541;28;20068;-58
2022/02/15 09:17:05;;;;;;;7.40;1.90;;;8.60;99.90;;;;;;4987998;28;20125;-57
2022/02/15 09:19:33;;;;;;;6.72;1.70;;;8.60;99.90;;;;;;4998584;28;20144;-57
2022/02/15 09:22:00;;;;;;;5.75;2.10;;;8.70;99.90;;;;;;4988668;28;20068;-58
2022/02/15 09:24:27;;;;;;;8.55;2.20;;;8.70;99.90;;;;;;4993439;28;20053;-58
2022/02/15 09:26:54;;;;;;;6.95;1.58;;;8.80;99.90;;;;;;4999365;28;20460;-58
2022/02/15 09:29:21;;;;;;;7.75;1.55;;;8.80;99.90;;;;;;4996888;28;20440;-56
2022/02/15 09:31:48;;;;;;;6.40;1.88;;;8.90;99.90;;;;;;4998098;28;20478;-58
2022/02/15 09:34:14;;;;;;;4.68;1.38;;;9.00;99.90;;;;;;5005910;28;20058;-57
2022/02/15 09:36:41;;;;;;;6.07;1.83;;;9.10;99.90;;;;;;4995257;28;20101;-56
2022/02/15 09:39:08;;;;;;;5.20;1.55;;;9.20;99.90;;;;;;4997793;28;20454;-56
2022/02/15 09:41:35;;;;;;;5.25;1.52;;;9.30;99.90;;;;;;4998474;28;20057;-58
2022/02/15 09:44:03;;;;;;;3.80;1.40;;;9.30;99.90;;;;;;4994874;28;20136;-58
2022/02/15 09:46:30;;;;;;;4.75;1.42;;;9.40;99.90;;;;;;4998079;28;20046;-57
2022/02/15 09:48:59;;;;;;;3.90;1.23;;;9.50;99.90;;;;;;4996443;28;20050;-57
2022/02/15 09:51:26;;;;;;;6.85;1.55;;;9.60;99.90;;;;;;4997209;28;20156;-58
2022/02/15 09:53:53;;;;;;;3.88;1.33;;;9.70;99.90;;;;;;4995043;28;20078;-58
2022/02/15 09:56:20;;;;;;;6.15;1.50;;;9.80;99.90;;;;;;4998123;28;20058;-57
2022/02/15 09:58:47;;;;;;;6.28;1.70;;;9.80;99.90;;;;;;4996625;28;20517;-57
2022/02/15 10:01:14;;;;;;;8.70;1.58;;;9.90;99.90;;;;;;4998180;28;20057;-58
2022/02/15 10:04:00;;;;;;;5.47;1.85;;;9.90;99.90;;;;;;4997617;28;20164;-58
2022/02/15 10:06:28;;;;;;;9.20;2.17;;;10.00;99.90;;;;;;4998533;28;20054;-59
2022/02/15 10:08:57;;;;;;;8.75;2.20;;;10.00;99.90;;;;;;4996582;28;20064;-58
2022/02/15 10:11:36;;;;;;;12.98;2.58;;;10.10;99.90;;;;;;4998376;28;20172;-58
2022/02/15 10:14:03;;;;;;;6.60;1.85;;;10.10;99.90;;;;;;4995302;28;20466;-58
2022/02/15 10:16:33;;;;;;;7.43;2.17;;;10.20;99.90;;;;;;4998170;28;20100;-57
2022/02/15 10:18:59;;;;;;;6.28;1.73;;;10.20;99.90;;;;;;4998007;28;20137;-58
2022/02/15 10:21:30;;;;;;;10.15;2.22;;;10.20;99.90;;;;;;4998889;28;20422;-57
2022/02/15 10:23:58;;;;;;;8.18;2.13;;;10.20;99.90;;;;;;5001097;28;20144;-58
2022/02/15 10:26:25;;;;;;;8.80;2.10;;;10.30;99.90;;;;;;5002404;28;20099;-57
2022/02/15 10:28:52;;;;;;;8.27;2.13;;;10.30;99.90;;;;;;5000705;28;20056;-58
2022/02/15 10:31:39;;;;;;;5.53;1.90;;;10.40;99.90;;;;;;5002118;28;20046;-58
2022/02/15 10:34:06;;;;;;;11.80;3.10;;;10.40;99.90;;;;;;5000935;28;20488;-57
2022/02/15 10:36:32;;;;;;;8.55;3.05;;;10.40;99.90;;;;;;5000477;28;20125;-58
2022/02/15 10:39:01;;;;;;;9.07;3.08;;;10.40;99.90;;;;;;5000986;28;20149;-57
2022/02/15 10:41:32;;;;;;;8.05;3.00;;;10.40;99.90;;;;;;5002372;28;20137;-56
2022/02/15 10:43:59;;;;;;;7.72;2.20;;;10.40;99.90;;;;;;4998427;28;20160;-58
2022/02/15 10:46:29;;;;;;;9.45;2.90;;;10.30;99.90;;;;;;5001427;28;20133;-58
2022/02/15 10:48:56;;;;;;;7.80;2.80;;;10.30;99.90;;;;;;5000905;28;20101;-58
2022/02/15 10:51:23;;;;;;;5.65;2.08;;;10.30;99.90;;;;;;5001543;28;20093;-58
2022/02/15 10:53:56;;;;;;;9.48;2.72;;;10.20;99.90;;;;;;5000627;28;20471;-58
2022/02/15 10:56:35;;;;;;;11.80;2.42;;;10.20;99.90;;;;;;5001839;28;20058;-58
2022/02/15 10:59:03;;;;;;;9.93;3.05;;;10.10;99.90;;;;;;4998550;28;20137;-58
2022/02/15 11:01:30;;;;;;;6.80;2.10;;;10.10;99.90;;;;;;5000283;28;20072;-57
2022/02/15 11:03:57;;;;;;;7.47;2.50;;;10.00;99.90;;;;;;4983782;28;20081;-58
2022/02/15 11:06:24;;;;;;;7.03;2.28;;;10.00;99.90;;;;;;5002875;28;20046;-57
2022/02/15 11:08:50;;;;;;;8.80;2.65;;;10.00;99.90;;;;;;5000697;28;20053;-58
2022/02/15 11:11:24;;;;;;;6.28;1.98;;;10.00;99.90;;;;;;4987036;28;20125;-57
2022/02/15 11:13:52;;;;;;;;;;;9.90;99.90;;;;;;4986405;28;20145;-58
2022/02/15 11:16:21;;;;;;;7.88;1.77;;;9.90;99.90;;;;;;5003295;28;20015;-58
2022/02/15 11:18:48;;;;;;;7.20;1.90;;;9.90;99.90;;;;;;5002326;28;20096;-58
2022/02/15 11:21:25;;;;;;;6.20;1.98;;;9.90;99.90;;;;;;5002341;28;20124;-57
2022/02/15 11:23:59;;;;;;;6.57;2.25;;;9.80;99.90;;;;;;5001062;28;20148;-56
2022/02/15 11:26:42;;;;;;;6.68;1.98;;;9.80;99.90;;;;;;5003807;28;20053;-58
2022/02/15 11:29:21;;;;;;;5.65;1.50;;;9.70;99.90;;;;;;5001960;28;20078;-58
2022/02/15 11:31:49;;;;;;;7.60;2.30;;;9.70;99.90;;;;;;5003733;28;20513;-58
2022/02/15 11:34:16;;;;;;;9.52;2.08;;;9.60;99.90;;;;;;5002841;28;20061;-58
2022/02/15 11:36:52;;;;;;;7.05;1.77;;;9.60;99.90;;;;;;5002166;28;20088;-58
2022/02/15 11:39:27;;;;;;;7.97;1.85;;;9.50;99.90;;;;;;5002755;28;20102;-59
2022/02/15 11:41:58;;;;;;;6.40;2.40;;;9.50;99.90;;;;;;5003819;28;20140;-59
2022/02/15 11:44:29;;;;;;;6.05;2.30;;;9.50;99.90;;;;;;5001640;28;20050;-57
2022/02/15 11:47:19;;;;;;;5.25;2.25;;;9.50;99.90;;;;;;5003526;28;20050;-58
2022/02/15 11:49:50;;;;;;;7.93;1.80;;;9.50;99.90;;;;;;5001635;28;20054;-59
2022/02/15 11:52:17;;;;;;;7.90;1.90;;;9.40;99.90;;;;;;5002831;28;20496;-59
2022/02/15 11:54:44;;;;;;;7.10;2.05;;;9.40;99.90;;;;;;5002139;28;20124;-58
2022/02/15 11:57:11;;;;;;;5.68;1.92;;;9.40;99.90;;;;;;5003353;28;20433;-59
2022/02/15 11:59:37;;;;;;;6.18;1.95;;;9.40;99.90;;;;;;5000120;28;20488;-59
2022/02/15 12:02:06;;;;;;;6.45;2.10;;;9.40;99.90;;;;;;5001773;28;20099;-59
2022/02/15 12:04:33;;;;;;;6.22;2.10;;;9.50;99.90;;;;;;5002687;28;20107;-59
2022/02/15 12:07:00;;;;;;;6.95;2.28;;;9.40;99.90;;;;;;5001902;28;20524;-58
2022/02/15 12:09:28;;;;;;;8.60;2.70;;;9.50;99.90;;;;;;4998965;28;20152;-58
2022/02/15 12:11:55;;;;;;;7.53;1.95;;;9.50;99.90;;;;;;5000027;28;20058;-58
2022/02/15 12:14:23;;;;;;;7.25;1.70;;;9.50;99.90;;;;;;4998004;28;20058;-59
2022/02/15 12:16:54;;;;;;;7.57;2.55;;;9.40;99.90;;;;;;4999106;28;20129;-58
2022/02/15 12:19:32;;;;;;;5.35;2.08;;;9.40;99.90;;;;;;4999204;28;20136;-59
2022/02/15 12:21:59;;;;;;;5.03;1.58;;;9.40;99.90;;;;;;4999079;28;20478;-58
2022/02/15 12:24:26;;;;;;;5.20;1.42;;;9.40;99.90;;;;;;4998550;28;20132;-58
2022/02/15 12:26:54;;;;;;;6.97;2.50;;;9.40;99.90;;;;;;4999406;28;20241;-58
2022/02/15 12:29:21;;;;;;;7.93;2.05;;;9.40;99.90;;;;;;4998071;28;20088;-58
2022/02/15 12:31:58;;;;;;;6.20;1.80;;;9.40;99.90;;;;;;4999751;28;20136;-58
2022/02/15 12:34:25;;;;;;;6.35;2.15;;;9.30;99.90;;;;;;4999602;28;20085;-58
2022/02/15 12:36:52;;;;;;;7.13;2.28;;;9.30;99.90;;;;;;4999366;28;20109;-58
2022/02/15 12:39:20;;;;;;;3.65;1.58;;;9.20;99.90;;;;;;4998876;28;20061;-58
2022/02/15 12:41:47;;;;;;;4.88;1.40;;;9.20;99.90;;;;;;4998355;28;20049;-59
2022/02/15 12:44:15;;;;;;;5.22;1.60;;;9.20;99.90;;;;;;4996404;28;20140;-58
2022/02/15 12:46:43;;;;;;;4.65;1.40;;;9.20;99.90;;;;;;4999463;28;20046;-58
2022/02/15 12:49:10;;;;;;;4.45;1.55;;;9.20;99.90;;;;;;4998101;28;20140;-58
2022/02/15 12:51:37;;;;;;;4.18;1.42;;;9.20;99.90;;;;;;4972108;28;20132;-58
2022/02/15 12:54:05;;;;;;;4.57;1.50;;;9.20;99.90;;;;;;4995109;28;20137;-57
2022/02/15 12:56:32;;;;;;;6.40;1.60;;;9.20;99.90;;;;;;4997621;28;20099;-58
2022/02/15 12:59:02;;;;;;;6.25;1.48;;;9.20;99.90;;;;;;4979176;28;20433;-58
2022/02/15 13:01:29;;;;;;;2.95;1.23;;;9.10;99.90;;;;;;4985582;28;20108;-58
2022/02/15 13:03:56;;;;;;;5.38;2.47;;;9.20;99.90;;;;;;4988665;28;20141;-59